sensor_id;sensor_type;location;lat;lon;timestamp;pressure;altitude;pressure_sealevel;temperature;humidity
17855;BME280;9053;53.358;6.382;2023-08-30T00:00:23;100703.97;;;16.92;93.96
17855;BME280;9053;53.358;6.382;2023-08-30T00:02:53;100703.94;;;16.89;93.82
17855;BME280;9053;53.358;6.382;2023-08-30T00:05:23;100711.91;;;16.87;93.95
17855;BME280;9053;53.358;6.382;2023-08-30T00:07:54;100708.34;;;16.85;93.92
17855;BME280;9053;53.358;6.382;2023-08-30T00:10:27;100702.13;;;16.81;94.04
17855;BME280;9053;53.358;6.382;2023-08-30T00:12:57;100698.56;;;16.79;93.87
17855;BME280;9053;53.358;6.382;2023-08-30T00:15:27;100701.19;;;16.76;93.92
17855;BME280;9053;53.358;6.382;2023-08-30T00:17:57;100703.81;;;16.75;93.87
17855;BME280;9053;53.358;6.382;2023-08-30T00:20:27;100702.91;;;16.71;93.95
17855;BME280;9053;53.358;6.382;2023-08-30T00:22:57;100701.13;;;16.70;93.92
17855;BME280;9053;53.358;6.382;2023-08-30T00:25:30;100698.47;;;16.67;93.92
17855;BME280;9053;53.358;6.382;2023-08-30T00:28:00;100690.47;;;16.64;93.94
17855;BME280;9053;53.358;6.382;2023-08-30T00:30:29;100701.06;;;16.62;93.90
17855;BME280;9053;53.358;6.382;2023-08-30T00:32:59;100693.06;;;16.58;94.01
17855;BME280;9053;53.358;6.382;2023-08-30T00:35:29;100693.94;;;16.55;94.04
17855;BME280;9053;53.358;6.382;2023-08-30T00:37:59;100699.25;;;16.52;94.10
17855;BME280;9053;53.358;6.382;2023-08-30T00:40:37;100698.34;;;16.49;94.16
17855;BME280;9053;53.358;6.382;2023-08-30T00:43:08;100691.25;;;16.46;94.39
17855;BME280;9053;53.358;6.382;2023-08-30T00:45:40;100690.38;;;16.46;94.50
17855;BME280;9053;53.358;6.382;2023-08-30T00:48:10;100678.84;;;16.43;94.56
17855;BME280;9053;53.358;6.382;2023-08-30T00:50:41;100682.34;;;16.42;94.71
17855;BME280;9053;53.358;6.382;2023-08-30T00:53:11;100677.94;;;16.41;94.94
17855;BME280;9053;53.358;6.382;2023-08-30T00:55:44;100681.47;;;16.40;95.19
17855;BME280;9053;53.358;6.382;2023-08-30T00:58:14;100686.78;;;16.40;95.35
17855;BME280;9053;53.358;6.382;2023-08-30T01:00:44;100680.56;;;16.40;95.46
17855;BME280;9053;53.358;6.382;2023-08-30T01:03:14;100680.59;;;16.41;95.85
17855;BME280;9053;53.358;6.382;2023-08-30T01:05:44;100678.81;;;16.42;96.00
17855;BME280;9053;53.358;6.382;2023-08-30T01:08:14;100677.97;;;16.43;96.34
17855;BME280;9053;53.358;6.382;2023-08-30T01:10:53;100677.03;;;16.42;96.43
17855;BME280;9053;53.358;6.382;2023-08-30T01:13:30;100669.09;;;16.44;96.76
17855;BME280;9053;53.358;6.382;2023-08-30T01:16:03;100668.22;;;16.45;97.02
17855;BME280;9053;53.358;6.382;2023-08-30T01:18:35;100665.59;;;16.47;97.00
17855;BME280;9053;53.358;6.382;2023-08-30T01:21:12;100669.16;;;16.49;97.38
17855;BME280;9053;53.358;6.382;2023-08-30T01:23:49;100666.50;;;16.52;97.71
17855;BME280;9053;53.358;6.382;2023-08-30T01:26:29;100670.94;;;16.54;97.91
17855;BME280;9053;53.358;6.382;2023-08-30T01:29:04;100676.28;;;16.57;98.24
17855;BME280;9053;53.358;6.382;2023-08-30T01:31:35;100667.44;;;16.58;98.39
17855;BME280;9053;53.358;6.382;2023-08-30T01:34:05;100668.34;;;16.62;98.56
17855;BME280;9053;53.358;6.382;2023-08-30T01:36:36;100661.25;;;16.62;98.81
17855;BME280;9053;53.358;6.382;2023-08-30T01:39:07;100662.19;;;16.66;99.14
17855;BME280;9053;53.358;6.382;2023-08-30T01:41:37;100664.84;;;16.69;99.23
17855;BME280;9053;53.358;6.382;2023-08-30T01:44:11;100657.78;;;16.71;99.53
17855;BME280;9053;53.358;6.382;2023-08-30T01:46:44;100655.13;;;16.73;99.73
17855;BME280;9053;53.358;6.382;2023-08-30T01:49:15;100655.16;;;16.76;99.86
17855;BME280;9053;53.358;6.382;2023-08-30T01:51:45;100656.03;;;16.76;100.00
17855;BME280;9053;53.358;6.382;2023-08-30T01:54:17;100654.31;;;16.78;100.00
17855;BME280;9053;53.358;6.382;2023-08-30T01:56:48;100657.84;;;16.80;100.00
17855;BME280;9053;53.358;6.382;2023-08-30T01:59:20;100654.34;;;16.81;100.00
17855;BME280;9053;53.358;6.382;2023-08-30T02:01:51;100649.91;;;16.82;100.00
17855;BME280;9053;53.358;6.382;2023-08-30T02:04:21;100652.56;;;16.83;100.00
17855;BME280;9053;53.358;6.382;2023-08-30T02:06:55;100649.00;;;16.83;100.00
17855;BME280;9053;53.358;6.382;2023-08-30T02:09:33;100646.34;;;16.83;100.00
17855;BME280;9053;53.358;6.382;2023-08-30T02:12:09;100643.72;;;16.84;100.00
17855;BME280;9053;53.358;6.382;2023-08-30T02:14:45;100636.63;;;16.85;100.00
17855;BME280;9053;53.358;6.382;2023-08-30T02:17:17;100639.28;;;16.85;100.00
17855;BME280;9053;53.358;6.382;2023-08-30T02:19:47;100636.66;;;16.86;100.00
17855;BME280;9053;53.358;6.382;2023-08-30T02:22:20;100627.78;;;16.87;100.00
17855;BME280;9053;53.358;6.382;2023-08-30T02:24:50;100630.47;;;16.89;100.00
17855;BME280;9053;53.358;6.382;2023-08-30T02:27:19;100630.44;;;16.91;100.00
17855;BME280;9053;53.358;6.382;2023-08-30T02:29:52;100626.06;;;16.91;100.00
17855;BME280;9053;53.358;6.382;2023-08-30T02:32:22;100628.69;;;16.93;100.00
17855;BME280;9053;53.358;6.382;2023-08-30T02:34:52;100626.91;;;16.93;100.00
17855;BME280;9053;53.358;6.382;2023-08-30T02:37:22;100626.94;;;16.95;100.00
17855;BME280;9053;53.358;6.382;2023-08-30T02:39:52;100617.22;;;16.94;100.00
17855;BME280;9053;53.358;6.382;2023-08-30T02:42:22;100618.06;;;16.90;100.00
17855;BME280;9053;53.358;6.382;2023-08-30T02:44:55;100613.59;;;16.85;100.00
17855;BME280;9053;53.358;6.382;2023-08-30T02:47:25;100618.94;;;16.87;100.00
17855;BME280;9053;53.358;6.382;2023-08-30T02:49:55;100610.09;;;16.83;100.00
17855;BME280;9053;53.358;6.382;2023-08-30T02:52:25;100601.19;;;16.80;100.00
17855;BME280;9053;53.358;6.382;2023-08-30T02:54:55;100600.28;;;16.76;100.00
17855;BME280;9053;53.358;6.382;2023-08-30T02:57:25;100598.50;;;16.74;100.00
17855;BME280;9053;53.358;6.382;2023-08-30T02:59:57;100596.72;;;16.71;99.92
17855;BME280;9053;53.358;6.382;2023-08-30T03:02:27;100593.16;;;16.69;99.52
17855;BME280;9053;53.358;6.382;2023-08-30T03:04:57;100596.69;;;16.66;99.31
17855;BME280;9053;53.358;6.382;2023-08-30T03:07:28;100595.81;;;16.66;99.09
17855;BME280;9053;53.358;6.382;2023-08-30T03:09:58;100585.16;;;16.61;98.93
17855;BME280;9053;53.358;6.382;2023-08-30T03:12:30;100579.84;;;16.58;98.58
17855;BME280;9053;53.358;6.382;2023-08-30T03:15:03;100576.25;;;16.55;98.36
17855;BME280;9053;53.358;6.382;2023-08-30T03:17:35;100578.91;;;16.52;98.22
17855;BME280;9053;53.358;6.382;2023-08-30T03:20:06;100576.25;;;16.49;97.79
17855;BME280;9053;53.358;6.382;2023-08-30T03:22:37;100573.56;;;16.44;97.81
17855;BME280;9053;53.358;6.382;2023-08-30T03:25:07;100573.53;;;16.38;97.41
17855;BME280;9053;53.358;6.382;2023-08-30T03:27:37;100583.22;;;16.31;97.23
17855;BME280;9053;53.358;6.382;2023-08-30T03:30:11;100577.84;;;16.25;97.17
17855;BME280;9053;53.358;6.382;2023-08-30T03:32:41;100587.56;;;16.21;97.16
17855;BME280;9053;53.358;6.382;2023-08-30T03:35:11;100587.53;;;16.17;97.18
17855;BME280;9053;53.358;6.382;2023-08-30T03:37:41;100583.09;;;16.13;97.20
17855;BME280;9053;53.358;6.382;2023-08-30T03:40:11;100582.19;;;16.11;97.03
17855;BME280;9053;53.358;6.382;2023-08-30T03:42:41;100578.63;;;16.09;97.13
17855;BME280;9053;53.358;6.382;2023-08-30T03:45:14;100577.75;;;16.05;97.08
17855;BME280;9053;53.358;6.382;2023-08-30T03:47:44;100578.56;;;16.02;96.88
17855;BME280;9053;53.358;6.382;2023-08-30T03:50:15;100575.91;;;15.99;96.64
17855;BME280;9053;53.358;6.382;2023-08-30T03:52:45;100567.03;;;15.94;96.52
17855;BME280;9053;53.358;6.382;2023-08-30T03:55:15;100558.16;;;15.92;96.31
17855;BME280;9053;53.358;6.382;2023-08-30T03:57:44;100558.16;;;15.89;96.25
17855;BME280;9053;53.358;6.382;2023-08-30T04:00:17;100551.06;;;15.85;96.16
17855;BME280;9053;53.358;6.382;2023-08-30T04:02:47;100547.50;;;15.83;96.25
17855;BME280;9053;53.358;6.382;2023-08-30T04:05:17;100536.91;;;15.80;96.17
17855;BME280;9053;53.358;6.382;2023-08-30T04:07:47;100540.38;;;15.76;96.07
17855;BME280;9053;53.358;6.382;2023-08-30T04:10:17;100531.53;;;15.72;95.86
17855;BME280;9053;53.358;6.382;2023-08-30T04:12:47;100535.94;;;15.70;95.80
17855;BME280;9053;53.358;6.382;2023-08-30T04:15:20;100527.91;;;15.66;95.67
17855;BME280;9053;53.358;6.382;2023-08-30T04:17:50;100521.66;;;15.62;95.55
17855;BME280;9053;53.358;6.382;2023-08-30T04:20:20;100519.88;;;15.58;95.40
17855;BME280;9053;53.358;6.382;2023-08-30T04:22:50;100519.88;;;15.56;95.43
17855;BME280;9053;53.358;6.382;2023-08-30T04:25:22;100512.78;;;15.52;95.36
17855;BME280;9053;53.358;6.382;2023-08-30T04:27:52;100513.63;;;15.51;95.35
17855;BME280;9053;53.358;6.382;2023-08-30T04:30:24;100519.81;;;15.47;95.22
17855;BME280;9053;53.358;6.382;2023-08-30T04:32:54;100520.66;;;15.46;95.26
17855;BME280;9053;53.358;6.382;2023-08-30T04:35:24;100518.88;;;15.44;95.52
17855;BME280;9053;53.358;6.382;2023-08-30T04:37:57;100517.09;;;15.41;95.70
17855;BME280;9053;53.358;6.382;2023-08-30T04:40:27;100514.41;;;15.38;96.06
17855;BME280;9053;53.358;6.382;2023-08-30T04:42:58;100508.22;;;15.39;96.59
17855;BME280;9053;53.358;6.382;2023-08-30T04:45:31;100505.63;;;15.42;97.09
17855;BME280;9053;53.358;6.382;2023-08-30T04:48:04;100513.59;;;15.45;97.62
17855;BME280;9053;53.358;6.382;2023-08-30T04:50:35;100511.84;;;15.49;98.09
17855;BME280;9053;53.358;6.382;2023-08-30T04:53:05;100503.03;;;15.51;98.26
17855;BME280;9053;53.358;6.382;2023-08-30T04:55:35;100500.41;;;15.53;98.73
17855;BME280;9053;53.358;6.382;2023-08-30T04:58:05;100497.75;;;15.53;98.98
17855;BME280;9053;53.358;6.382;2023-08-30T05:00:38;100500.47;;;15.57;99.14
17855;BME280;9053;53.358;6.382;2023-08-30T05:03:08;100499.59;;;15.60;99.60
17855;BME280;9053;53.358;6.382;2023-08-30T05:05:38;100505.78;;;15.64;99.86
17855;BME280;9053;53.358;6.382;2023-08-30T05:08:08;100500.50;;;15.65;100.00
17855;BME280;9053;53.358;6.382;2023-08-30T05:10:38;100499.69;;;15.69;100.00
17855;BME280;9053;53.358;6.382;2023-08-30T05:13:09;100488.22;;;15.73;100.00
17855;BME280;9053;53.358;6.382;2023-08-30T05:15:42;100487.38;;;15.76;100.00
17855;BME280;9053;53.358;6.382;2023-08-30T05:18:12;100493.56;;;15.79;100.00
17855;BME280;9053;53.358;6.382;2023-08-30T05:20:43;100487.38;;;15.82;100.00
17855;BME280;9053;53.358;6.382;2023-08-30T05:23:13;100485.66;;;15.86;100.00
17855;BME280;9053;53.358;6.382;2023-08-30T05:25:43;100489.22;;;15.89;100.00
17855;BME280;9053;53.358;6.382;2023-08-30T05:28:13;100482.16;;;15.91;100.00
17855;BME280;9053;53.358;6.382;2023-08-30T05:30:46;100487.50;;;15.96;100.00
17855;BME280;9053;53.358;6.382;2023-08-30T05:33:16;100477.78;;;15.98;100.00
17855;BME280;9053;53.358;6.382;2023-08-30T05:35:46;100469.81;;;15.99;100.00
17855;BME280;9053;53.358;6.382;2023-08-30T05:38:16;100472.47;;;16.02;100.00
17855;BME280;9053;53.358;6.382;2023-08-30T05:40:46;100472.53;;;16.06;100.00
17855;BME280;9053;53.358;6.382;2023-08-30T05:43:16;100460.16;;;16.08;100.00
17855;BME280;9053;53.358;6.382;2023-08-30T05:45:48;100456.63;;;16.10;100.00
17855;BME280;9053;53.358;6.382;2023-08-30T05:48:18;100446.91;;;16.14;100.00
17855;BME280;9053;53.358;6.382;2023-08-30T05:50:48;100445.16;;;16.16;100.00
17855;BME280;9053;53.358;6.382;2023-08-30T05:53:18;100446.06;;;16.19;100.00
17855;BME280;9053;53.358;6.382;2023-08-30T05:55:48;100457.53;;;16.20;100.00
17855;BME280;9053;53.358;6.382;2023-08-30T05:58:18;100447.84;;;16.20;100.00
17855;BME280;9053;53.358;6.382;2023-08-30T06:00:50;100448.72;;;16.21;100.00
17855;BME280;9053;53.358;6.382;2023-08-30T06:03:20;100437.22;;;16.22;100.00
17855;BME280;9053;53.358;6.382;2023-08-30T06:05:50;100438.13;;;16.24;100.00
17855;BME280;9053;53.358;6.382;2023-08-30T06:08:20;100442.56;;;16.28;100.00
17855;BME280;9053;53.358;6.382;2023-08-30T06:10:50;100435.47;;;16.30;100.00
17855;BME280;9053;53.358;6.382;2023-08-30T06:13:20;100444.34;;;16.31;100.00
17855;BME280;9053;53.358;6.382;2023-08-30T06:15:53;100439.03;;;16.32;100.00
17855;BME280;9053;53.358;6.382;2023-08-30T06:18:23;100439.03;;;16.32;100.00
17855;BME280;9053;53.358;6.382;2023-08-30T06:20:53;100432.84;;;16.33;100.00
17855;BME280;9053;53.358;6.382;2023-08-30T06:23:23;100432.84;;;16.33;100.00
17855;BME280;9053;53.358;6.382;2023-08-30T06:25:56;100437.28;;;16.36;100.00
17855;BME280;9053;53.358;6.382;2023-08-30T06:28:26;100431.09;;;16.37;100.00
17855;BME280;9053;53.358;6.382;2023-08-30T06:30:59;100425.78;;;16.37;100.00
17855;BME280;9053;53.358;6.382;2023-08-30T06:33:29;100424.91;;;16.36;100.00
17855;BME280;9053;53.358;6.382;2023-08-30T06:35:59;100424.91;;;16.36;100.00
17855;BME280;9053;53.358;6.382;2023-08-30T06:38:29;100418.69;;;16.37;100.00
17855;BME280;9053;53.358;6.382;2023-08-30T06:40:59;100429.34;;;16.36;100.00
17855;BME280;9053;53.358;6.382;2023-08-30T06:43:28;100421.38;;;16.36;100.00
17855;BME280;9053;53.358;6.382;2023-08-30T06:46:01;100420.47;;;16.35;100.00
17855;BME280;9053;53.358;6.382;2023-08-30T06:48:31;100421.34;;;16.34;100.00
17855;BME280;9053;53.358;6.382;2023-08-30T06:51:01;100427.56;;;16.36;100.00
17855;BME280;9053;53.358;6.382;2023-08-30T06:53:31;100422.25;;;16.38;100.00
17855;BME280;9053;53.358;6.382;2023-08-30T06:56:01;100415.19;;;16.38;100.00
17855;BME280;9053;53.358;6.382;2023-08-30T06:58:31;100416.09;;;16.40;100.00
17855;BME280;9053;53.358;6.382;2023-08-30T07:01:03;100425.81;;;16.43;100.00
17855;BME280;9053;53.358;6.382;2023-08-30T07:03:33;100408.13;;;16.43;100.00
17855;BME280;9053;53.358;6.382;2023-08-30T07:06:03;100413.44;;;16.47;100.00
17855;BME280;9053;53.358;6.382;2023-08-30T07:08:33;100415.22;;;16.51;100.00
17855;BME280;9053;53.358;6.382;2023-08-30T07:11:03;100406.38;;;16.55;100.00
17855;BME280;9053;53.358;6.382;2023-08-30T07:13:42;100403.72;;;16.58;100.00
17855;BME280;9053;53.358;6.382;2023-08-30T07:16:15;100395.75;;;16.58;100.00
17855;BME280;9053;53.358;6.382;2023-08-30T07:18:45;100402.84;;;16.60;100.00
17855;BME280;9053;53.358;6.382;2023-08-30T07:21:15;100403.72;;;16.62;100.00
17855;BME280;9053;53.358;6.382;2023-08-30T07:23:45;100402.84;;;16.65;100.00
17855;BME280;9053;53.358;6.382;2023-08-30T07:26:14;100398.44;;;16.69;100.00
17855;BME280;9053;53.358;6.382;2023-08-30T07:28:45;100401.13;;;16.73;100.00
17855;BME280;9053;53.358;6.382;2023-08-30T07:31:17;100400.28;;;16.79;100.00
17855;BME280;9053;53.358;6.382;2023-08-30T07:33:48;100407.34;;;16.81;100.00
17855;BME280;9053;53.358;6.382;2023-08-30T07:36:18;100403.81;;;16.84;100.00
17855;BME280;9053;53.358;6.382;2023-08-30T07:39:03;100397.59;;;16.88;100.00
17855;BME280;9053;53.358;6.382;2023-08-30T07:41:34;100405.56;;;16.96;100.00
17855;BME280;9053;53.358;6.382;2023-08-30T07:44:04;100400.28;;;17.02;100.00
17855;BME280;9053;53.358;6.382;2023-08-30T07:46:37;100394.94;;;17.08;100.00
17855;BME280;9053;53.358;6.382;2023-08-30T07:49:07;100394.06;;;17.15;100.00
17855;BME280;9053;53.358;6.382;2023-08-30T07:51:37;100394.94;;;17.23;100.00
17855;BME280;9053;53.358;6.382;2023-08-30T07:54:06;100395.84;;;17.32;100.00
17855;BME280;9053;53.358;6.382;2023-08-30T07:56:37;100400.28;;;17.39;100.00
17855;BME280;9053;53.358;6.382;2023-08-30T07:59:07;100403.81;;;17.47;100.00
17855;BME280;9053;53.358;6.382;2023-08-30T08:01:41;100408.22;;;17.54;100.00
17855;BME280;9053;53.358;6.382;2023-08-30T08:04:11;100409.97;;;17.61;100.00
17855;BME280;9053;53.358;6.382;2023-08-30T08:06:41;100417.94;;;17.66;100.00
17855;BME280;9053;53.358;6.382;2023-08-30T08:09:22;100417.97;;;17.69;100.00
17855;BME280;9053;53.358;6.382;2023-08-30T08:11:53;100425.91;;;17.72;99.80
17855;BME280;9053;53.358;6.382;2023-08-30T08:14:23;100432.09;;;17.71;99.12
17855;BME280;9053;53.358;6.382;2023-08-30T08:16:56;100430.34;;;17.70;98.27
17855;BME280;9053;53.358;6.382;2023-08-30T08:19:26;100439.22;;;17.72;98.05
17855;BME280;9053;53.358;6.382;2023-08-30T08:21:56;100441.84;;;17.73;97.90
17855;BME280;9053;53.358;6.382;2023-08-30T08:24:26;100431.22;;;17.75;97.68
17855;BME280;9053;53.358;6.382;2023-08-30T08:26:55;100443.66;;;17.81;97.46
17855;BME280;9053;53.358;6.382;2023-08-30T08:29:26;100428.59;;;17.84;97.06
17855;BME280;9053;53.358;6.382;2023-08-30T08:31:59;100438.34;;;17.87;97.10
17855;BME280;9053;53.358;6.382;2023-08-30T08:34:29;100431.22;;;17.90;97.05
17855;BME280;9053;53.358;6.382;2023-08-30T08:36:59;100433.84;;;17.97;96.84
17855;BME280;9053;53.358;6.382;2023-08-30T08:39:30;100429.41;;;18.00;96.81
17855;BME280;9053;53.358;6.382;2023-08-30T08:42:01;100430.28;;;18.05;96.66
17855;BME280;9053;53.358;6.382;2023-08-30T08:44:31;100438.25;;;18.11;96.57
17855;BME280;9053;53.358;6.382;2023-08-30T08:47:04;100432.91;;;18.16;96.39
17855;BME280;9053;53.358;6.382;2023-08-30T08:49:34;100433.78;;;18.20;95.81
17855;BME280;9053;53.358;6.382;2023-08-30T08:52:05;100434.66;;;18.25;95.49
17855;BME280;9053;53.358;6.382;2023-08-30T08:54:54;100433.75;;;18.29;95.21
17855;BME280;9053;53.358;6.382;2023-08-30T08:57:28;100432.88;;;18.30;94.48
17855;BME280;9053;53.358;6.382;2023-08-30T08:59:59;100435.50;;;18.33;93.93
17855;BME280;9053;53.358;6.382;2023-08-30T09:02:31;100429.28;;;18.34;93.62
17855;BME280;9053;53.358;6.382;2023-08-30T09:05:01;100421.28;;;18.35;93.27
17855;BME280;9053;53.358;6.382;2023-08-30T09:07:32;100429.25;;;18.38;92.82
17855;BME280;9053;53.358;6.382;2023-08-30T09:10:03;100427.47;;;18.41;92.33
17855;BME280;9053;53.358;6.382;2023-08-30T09:12:34;100433.69;;;18.43;91.82
17855;BME280;9053;53.358;6.382;2023-08-30T09:15:05;100434.56;;;18.45;91.36
17855;BME280;9053;53.358;6.382;2023-08-30T09:17:39;100441.66;;;18.44;91.13
17855;BME280;9053;53.358;6.382;2023-08-30T09:20:11;100435.44;;;18.44;90.88
17855;BME280;9053;53.358;6.382;2023-08-30T09:22:42;100426.56;;;18.42;90.46
17855;BME280;9053;53.358;6.382;2023-08-30T09:25:23;100427.50;;;18.42;90.43
17855;BME280;9053;53.358;6.382;2023-08-30T09:27:57;100432.81;;;18.42;90.40
17855;BME280;9053;53.358;6.382;2023-08-30T09:30:28;100428.38;;;18.43;90.31
17855;BME280;9053;53.358;6.382;2023-08-30T09:33:05;100428.38;;;18.43;90.30
17855;BME280;9053;53.358;6.382;2023-08-30T09:35:43;100419.47;;;18.45;90.57
17855;BME280;9053;53.358;6.382;2023-08-30T09:38:17;100423.00;;;18.49;90.56
17855;BME280;9053;53.358;6.382;2023-08-30T09:40:47;100418.56;;;18.52;90.65
17855;BME280;9053;53.358;6.382;2023-08-30T09:43:18;100419.44;;;18.53;90.72
17855;BME280;9053;53.358;6.382;2023-08-30T09:45:48;100411.41;;;18.56;90.78
17855;BME280;9053;53.358;6.382;2023-08-30T09:48:27;100413.19;;;18.58;91.01
17855;BME280;9053;53.358;6.382;2023-08-30T09:50:58;100416.69;;;18.64;91.16
17855;BME280;9053;53.358;6.382;2023-08-30T09:53:29;100411.34;;;18.67;91.02
17855;BME280;9053;53.358;6.382;2023-08-30T09:56:11;100406.91;;;18.70;90.76
17855;BME280;9053;53.358;6.382;2023-08-30T09:58:42;100400.69;;;18.73;91.03
17855;BME280;9053;53.358;6.382;2023-08-30T10:01:12;100407.75;;;18.77;90.95
17855;BME280;9053;53.358;6.382;2023-08-30T10:03:46;100402.41;;;18.83;90.66
17855;BME280;9053;53.358;6.382;2023-08-30T10:06:17;100399.75;;;18.81;90.51
17855;BME280;9053;53.358;6.382;2023-08-30T10:08:49;100401.50;;;18.84;90.70
17855;BME280;9053;53.358;6.382;2023-08-30T10:11:21;100394.41;;;18.88;90.95
17855;BME280;9053;53.358;6.382;2023-08-30T10:13:52;100396.13;;;18.92;91.14
17855;BME280;9053;53.358;6.382;2023-08-30T10:16:24;100375.69;;;18.95;91.17
17855;BME280;9053;53.358;6.382;2023-08-30T10:19:02;100380.97;;;18.98;91.15
17855;BME280;9053;53.358;6.382;2023-08-30T10:21:35;100379.16;;;19.02;91.23
17855;BME280;9053;53.358;6.382;2023-08-30T10:24:08;100381.78;;;19.07;91.47
17855;BME280;9053;53.358;6.382;2023-08-30T10:26:57;100376.44;;;19.11;91.78
17855;BME280;9053;53.358;6.382;2023-08-30T10:29:28;100379.06;;;19.16;91.74
17855;BME280;9053;53.358;6.382;2023-08-30T10:32:02;100373.69;;;19.17;91.74
17855;BME280;9053;53.358;6.382;2023-08-30T10:34:36;100372.84;;;19.15;91.66
17855;BME280;9053;53.358;6.382;2023-08-30T10:37:07;100382.59;;;19.16;91.60
17855;BME280;9053;53.358;6.382;2023-08-30T10:39:39;100367.53;;;19.15;91.65
17855;BME280;9053;53.358;6.382;2023-08-30T10:42:09;100384.34;;;19.19;91.99
17855;BME280;9053;53.358;6.382;2023-08-30T10:44:49;100380.81;;;19.17;91.92
17855;BME280;9053;53.358;6.382;2023-08-30T10:47:39;100385.22;;;19.19;91.88
17855;BME280;9053;53.358;6.382;2023-08-30T10:50:12;100375.44;;;19.20;92.11
17855;BME280;9053;53.358;6.382;2023-08-30T10:52:54;100376.34;;;19.20;92.23
17855;BME280;9053;53.358;6.382;2023-08-30T10:55:24;100377.22;;;19.21;92.56
17855;BME280;9053;53.358;6.382;2023-08-30T10:57:59;100377.22;;;19.21;92.46
17855;BME280;9053;53.358;6.382;2023-08-30T11:00:30;100376.34;;;19.19;92.58
17855;BME280;9053;53.358;6.382;2023-08-30T11:03:00;100376.34;;;19.17;92.87
17855;BME280;9053;53.358;6.382;2023-08-30T11:05:33;100386.16;;;19.17;92.65
17855;BME280;9053;53.358;6.382;2023-08-30T11:08:05;100373.72;;;19.16;92.78
17855;BME280;9053;53.358;6.382;2023-08-30T11:10:40;100371.94;;;19.16;93.14
17855;BME280;9053;53.358;6.382;2023-08-30T11:13:09;100368.38;;;19.17;93.53
17855;BME280;9053;53.358;6.382;2023-08-30T11:15:40;100369.28;;;19.16;93.76
17855;BME280;9053;53.358;6.382;2023-08-30T11:18:10;100363.03;;;19.19;94.29
17855;BME280;9053;53.358;6.382;2023-08-30T11:20:42;100378.94;;;19.25;95.13
17855;BME280;9053;53.358;6.382;2023-08-30T11:23:12;100374.50;;;19.29;95.50
17855;BME280;9053;53.358;6.382;2023-08-30T11:25:42;100374.47;;;19.33;96.07
17855;BME280;9053;53.358;6.382;2023-08-30T11:28:12;100371.75;;;19.36;96.37
17855;BME280;9053;53.358;6.382;2023-08-30T11:30:42;100373.50;;;19.39;96.36
17855;BME280;9053;53.358;6.382;2023-08-30T11:33:12;100380.56;;;19.44;96.54
17855;BME280;9053;53.358;6.382;2023-08-30T11:35:45;100381.44;;;19.48;96.59
17855;BME280;9053;53.358;6.382;2023-08-30T11:38:19;100374.28;;;19.50;95.90
17855;BME280;9053;53.358;6.382;2023-08-30T11:40:49;100372.47;;;19.54;95.61
17855;BME280;9053;53.358;6.382;2023-08-30T11:43:21;100367.09;;;19.58;95.25
17855;BME280;9053;53.358;6.382;2023-08-30T11:45:56;100364.34;;;19.64;95.16
17855;BME280;9053;53.358;6.382;2023-08-30T11:48:26;100368.78;;;19.69;94.80
17855;BME280;9053;53.358;6.382;2023-08-30T11:50:59;100366.97;;;19.72;94.63
17855;BME280;9053;53.358;6.382;2023-08-30T11:53:29;100371.38;;;19.75;94.24
17855;BME280;9053;53.358;6.382;2023-08-30T11:55:59;100366.03;;;19.75;93.60
17855;BME280;9053;53.358;6.382;2023-08-30T11:58:32;100368.72;;;19.75;93.65
17855;BME280;9053;53.358;6.382;2023-08-30T12:01:02;100373.16;;;19.76;93.68
17855;BME280;9053;53.358;6.382;2023-08-30T12:03:32;100360.69;;;19.76;93.67
17855;BME280;9053;53.358;6.382;2023-08-30T12:06:09;100362.50;;;19.76;93.65
17855;BME280;9053;53.358;6.382;2023-08-30T12:08:39;100358.00;;;19.78;93.72
17855;BME280;9053;53.358;6.382;2023-08-30T12:11:17;100357.13;;;19.77;93.71
17855;BME280;9053;53.358;6.382;2023-08-30T12:13:47;100362.47;;;19.77;93.58
17855;BME280;9053;53.358;6.382;2023-08-30T12:16:18;100355.41;;;19.73;93.10
17855;BME280;9053;53.358;6.382;2023-08-30T12:18:48;100358.09;;;19.70;92.55
17855;BME280;9053;53.358;6.382;2023-08-30T12:21:20;100350.13;;;19.69;92.20
17855;BME280;9053;53.358;6.382;2023-08-30T12:24:02;100351.88;;;19.70;92.57
17855;BME280;9053;53.358;6.382;2023-08-30T12:26:32;100351.88;;;19.71;92.83
17855;BME280;9053;53.358;6.382;2023-08-30T12:29:05;100354.53;;;19.71;92.91
17855;BME280;9053;53.358;6.382;2023-08-30T12:31:35;100347.41;;;19.70;92.99
17855;BME280;9053;53.358;6.382;2023-08-30T12:34:05;100349.25;;;19.68;92.88
17855;BME280;9053;53.358;6.382;2023-08-30T12:36:38;100338.53;;;19.66;92.85
17855;BME280;9053;53.358;6.382;2023-08-30T12:39:08;100343.88;;;19.66;92.91
17855;BME280;9053;53.358;6.382;2023-08-30T12:41:38;100344.78;;;19.67;92.55
17855;BME280;9053;53.358;6.382;2023-08-30T12:44:09;100339.47;;;19.62;92.17
17855;BME280;9053;53.358;6.382;2023-08-30T12:46:39;100335.09;;;19.58;92.25
17855;BME280;9053;53.358;6.382;2023-08-30T12:49:09;100331.59;;;19.53;91.96
17855;BME280;9053;53.358;6.382;2023-08-30T12:51:42;100328.94;;;19.52;92.26
17855;BME280;9053;53.358;6.382;2023-08-30T12:54:12;100328.06;;;19.51;92.61
17855;BME280;9053;53.358;6.382;2023-08-30T12:56:42;100336.94;;;19.50;92.97
17855;BME280;9053;53.358;6.382;2023-08-30T12:59:12;100333.44;;;19.48;92.97
17855;BME280;9053;53.358;6.382;2023-08-30T13:01:42;100336.09;;;19.46;93.16
17855;BME280;9053;53.358;6.382;2023-08-30T13:04:13;100337.88;;;19.44;93.33
17855;BME280;9053;53.358;6.382;2023-08-30T13:06:45;100335.25;;;19.41;93.65
17855;BME280;9053;53.358;6.382;2023-08-30T13:09:15;100342.38;;;19.39;93.82
17855;BME280;9053;53.358;6.382;2023-08-30T13:11:47;100342.44;;;19.36;94.21
17855;BME280;9053;53.358;6.382;2023-08-30T13:14:17;100349.56;;;19.34;94.55
17855;BME280;9053;53.358;6.382;2023-08-30T13:16:49;100353.13;;;19.30;95.23
17855;BME280;9053;53.358;6.382;2023-08-30T13:19:22;100354.09;;;19.26;95.65